sensor_id;sensor_type;location;lat;lon;timestamp;pressure;altitude;pressure_sealevel;temperature;humidity
80798;BME280;70202;52.238;10.680;2023-07-31T00:00:47;99694.34;;;17.83;71.84
80798;BME280;70202;52.238;10.680;2023-07-31T00:01:47;99685.19;;;17.83;71.72
80798;BME280;70202;52.238;10.680;2023-07-31T00:02:47;99686.19;;;17.82;71.80
80798;BME280;70202;52.238;10.680;2023-07-31T00:03:48;99662.34;;;17.69;72.02
80798;BME280;70202;52.238;10.680;2023-07-31T00:04:48;99686.31;;;17.80;72.20
80798;BME280;70202;52.238;10.680;2023-07-31T00:05:49;99661.59;;;17.67;72.15
80798;BME280;70202;52.238;10.680;2023-07-31T00:06:49;99679.91;;;17.80;72.37
80798;BME280;70202;52.238;10.680;2023-07-31T00:07:49;99664.84;;;17.72;72.13
80798;BME280;70202;52.238;10.680;2023-07-31T00:08:50;99655.81;;;17.70;72.36
80798;BME280;70202;52.238;10.680;2023-07-31T00:09:50;99651.53;;;17.66;72.52
80798;BME280;70202;52.238;10.680;2023-07-31T00:10:52;99668.28;;;17.76;72.59
80798;BME280;70202;52.238;10.680;2023-07-31T00:11:52;99656.81;;;17.69;72.56
80798;BME280;70202;52.238;10.680;2023-07-31T00:12:53;99662.88;;;17.74;72.52
80798;BME280;70202;52.238;10.680;2023-07-31T00:13:53;99660.34;;;17.71;72.93
80798;BME280;70202;52.238;10.680;2023-07-31T00:14:54;99656.19;;;17.66;72.77
80798;BME280;70202;52.238;10.680;2023-07-31T00:15:54;99668.63;;;17.71;72.82
80798;BME280;70202;52.238;10.680;2023-07-31T00:16:55;99639.38;;;17.58;72.74
80798;BME280;70202;52.238;10.680;2023-07-31T00:17:55;99659.44;;;17.71;72.81
80798;BME280;70202;52.238;10.680;2023-07-31T00:18:56;99644.66;;;17.61;72.93
80798;BME280;70202;52.238;10.680;2023-07-31T00:19:56;99647.91;;;17.66;72.95
80798;BME280;70202;52.238;10.680;2023-07-31T00:20:57;99643.00;;;17.58;72.88
80798;BME280;70202;52.238;10.680;2023-07-31T00:21:57;99656.81;;;17.69;73.11
80798;BME280;70202;52.238;10.680;2023-07-31T00:22:58;99655.94;;;17.69;73.13
80798;BME280;70202;52.238;10.680;2023-07-31T00:23:58;99658.69;;;17.69;73.34
80798;BME280;70202;52.238;10.680;2023-07-31T00:24:58;99646.53;;;17.60;73.50
80798;BME280;70202;52.238;10.680;2023-07-31T00:26:00;99643.78;;;17.60;73.75
80798;BME280;70202;52.238;10.680;2023-07-31T00:27:00;99646.31;;;17.63;73.52
80798;BME280;70202;52.238;10.680;2023-07-31T00:28:00;99656.09;;;17.67;73.44
80798;BME280;70202;52.238;10.680;2023-07-31T00:29:01;99586.84;;;17.26;73.32
80798;BME280;70202;52.238;10.680;2023-07-31T00:30:01;99652.31;;;17.68;73.68
80798;BME280;70202;52.238;10.680;2023-07-31T00:31:02;99660.59;;;17.68;73.93
80798;BME280;70202;52.238;10.680;2023-07-31T00:32:03;99659.72;;;17.68;73.91
80798;BME280;70202;52.238;10.680;2023-07-31T00:33:04;99654.06;;;17.69;73.67
80798;BME280;70202;52.238;10.680;2023-07-31T00:34:04;99629.59;;;17.54;73.78
80798;BME280;70202;52.238;10.680;2023-07-31T00:35:05;99649.44;;;17.70;73.93
80798;BME280;70202;52.238;10.680;2023-07-31T00:36:05;99649.44;;;17.70;73.93
80798;BME280;70202;52.238;10.680;2023-07-31T00:37:06;99652.31;;;17.68;73.98
80798;BME280;70202;52.238;10.680;2023-07-31T00:38:07;99642.03;;;17.70;74.08
80798;BME280;70202;52.238;10.680;2023-07-31T00:39:07;99648.44;;;17.71;74.13
80798;BME280;70202;52.238;10.680;2023-07-31T00:40:08;99649.34;;;17.71;74.25
80798;BME280;70202;52.238;10.680;2023-07-31T00:41:08;99655.72;;;17.72;74.15
80798;BME280;70202;52.238;10.680;2023-07-31T00:42:08;99643.81;;;17.71;74.22
80798;BME280;70202;52.238;10.680;2023-07-31T00:43:09;99646.44;;;17.73;74.24
80798;BME280;70202;52.238;10.680;2023-07-31T00:44:09;99644.69;;;17.72;74.25
80798;BME280;70202;52.238;10.680;2023-07-31T00:45:10;99645.56;;;17.72;74.31
80798;BME280;70202;52.238;10.680;2023-07-31T00:46:10;99632.81;;;17.71;74.27
80798;BME280;70202;52.238;10.680;2023-07-31T00:47:11;99630.91;;;17.72;74.49
80798;BME280;70202;52.238;10.680;2023-07-31T00:48:11;99600.94;;;17.56;74.38
80798;BME280;70202;52.238;10.680;2023-07-31T00:49:12;99632.81;;;17.71;74.59
80798;BME280;70202;52.238;10.680;2023-07-31T00:50:13;99629.13;;;17.71;74.66
80798;BME280;70202;52.238;10.680;2023-07-31T00:51:14;99631.03;;;17.70;74.49
80798;BME280;70202;52.238;10.680;2023-07-31T00:52:14;99626.38;;;17.71;74.61
80798;BME280;70202;52.238;10.680;2023-07-31T00:53:15;99630.16;;;17.70;74.77
80798;BME280;70202;52.238;10.680;2023-07-31T00:54:15;99638.41;;;17.70;74.72
80798;BME280;70202;52.238;10.680;2023-07-31T00:55:16;99626.16;;;17.63;74.84
80798;BME280;70202;52.238;10.680;2023-07-31T00:56:17;99632.03;;;17.69;75.11
80798;BME280;70202;52.238;10.680;2023-07-31T00:57:18;99628.41;;;17.69;74.74
80798;BME280;70202;52.238;10.680;2023-07-31T00:58:18;99624.00;;;17.66;74.71
80798;BME280;70202;52.238;10.680;2023-07-31T00:59:19;99630.28;;;17.68;74.72
80798;BME280;70202;52.238;10.680;2023-07-31T01:00:19;99617.88;;;17.63;74.72
80798;BME280;70202;52.238;10.680;2023-07-31T01:01:19;99624.00;;;17.66;74.82
80798;BME280;70202;52.238;10.680;2023-07-31T01:02:20;99637.78;;;17.66;74.75
80798;BME280;70202;52.238;10.680;2023-07-31T01:03:20;99619.72;;;17.62;74.85
80798;BME280;70202;52.238;10.680;2023-07-31T01:04:21;99626.16;;;17.63;74.90
80798;BME280;70202;52.238;10.680;2023-07-31T01:05:43;99620.97;;;17.58;75.09
80798;BME280;70202;52.238;10.680;2023-07-31T01:08:05;99627.75;;;17.65;74.85
80798;BME280;70202;52.238;10.680;2023-07-31T01:09:27;99623.25;;;17.64;74.78
80798;BME280;70202;52.238;10.680;2023-07-31T01:10:38;99619.63;;;17.64;74.55
80798;BME280;70202;52.238;10.680;2023-07-31T01:11:52;99615.22;;;17.61;74.65
80798;BME280;70202;52.238;10.680;2023-07-31T01:12:53;99606.47;;;17.56;74.49
80798;BME280;70202;52.238;10.680;2023-07-31T01:13:57;99585.16;;;17.47;74.60
80798;BME280;70202;52.238;10.680;2023-07-31T01:15:04;99609.72;;;17.61;74.67
80798;BME280;70202;52.238;10.680;2023-07-31T01:16:04;99587.78;;;17.48;75.04
80798;BME280;70202;52.238;10.680;2023-07-31T01:17:05;99599.84;;;17.59;74.86
80798;BME280;70202;52.238;10.680;2023-07-31T01:18:05;99589.44;;;17.51;74.57
80798;BME280;70202;52.238;10.680;2023-07-31T01:19:08;99595.44;;;17.56;75.03
80798;BME280;70202;52.238;10.680;2023-07-31T01:20:16;99593.81;;;17.54;75.09
80798;BME280;70202;52.238;10.680;2023-07-31T01:24:28;99599.94;;;17.57;75.03
80798;BME280;70202;52.238;10.680;2023-07-31T01:27:04;99590.06;;;17.55;74.97
80798;BME280;70202;52.238;10.680;2023-07-31T01:28:10;99572.63;;;17.43;75.23
80798;BME280;70202;52.238;10.680;2023-07-31T01:30:43;99588.19;;;17.55;74.94
80798;BME280;70202;52.238;10.680;2023-07-31T01:31:47;99578.66;;;17.48;75.26
80798;BME280;70202;52.238;10.680;2023-07-31T01:32:49;99581.81;;;17.55;75.39
80798;BME280;70202;52.238;10.680;2023-07-31T01:33:57;99582.78;;;17.54;75.39
80798;BME280;70202;52.238;10.680;2023-07-31T01:34:59;99552.84;;;17.38;75.42
80798;BME280;70202;52.238;10.680;2023-07-31T01:36:00;99569.00;;;17.42;75.32
80798;BME280;70202;52.238;10.680;2023-07-31T01:37:00;99584.56;;;17.55;75.76
80798;BME280;70202;52.238;10.680;2023-07-31T01:38:01;99586.31;;;17.56;75.75
80798;BME280;70202;52.238;10.680;2023-07-31T01:39:02;99565.88;;;17.47;75.52
80798;BME280;70202;52.238;10.680;2023-07-31T01:40:04;99584.28;;;17.58;76.07
80798;BME280;70202;52.238;10.680;2023-07-31T01:41:04;99573.56;;;17.55;75.53
80798;BME280;70202;52.238;10.680;2023-07-31T01:42:05;99578.78;;;17.58;75.56
80798;BME280;70202;52.238;10.680;2023-07-31T01:43:05;99560.47;;;17.45;75.67
80798;BME280;70202;52.238;10.680;2023-07-31T01:44:06;99539.31;;;17.35;75.74
80798;BME280;70202;52.238;10.680;2023-07-31T01:45:06;99581.53;;;17.58;75.79
80798;BME280;70202;52.238;10.680;2023-07-31T01:46:07;99577.91;;;17.57;76.06
80798;BME280;70202;52.238;10.680;2023-07-31T01:47:07;99570.53;;;17.58;75.81
80798;BME280;70202;52.238;10.680;2023-07-31T01:48:08;99573.41;;;17.56;75.87
80798;BME280;70202;52.238;10.680;2023-07-31T01:49:09;99569.56;;;17.59;75.85
80798;BME280;70202;52.238;10.680;2023-07-31T01:50:10;99578.69;;;17.59;75.78
80798;BME280;70202;52.238;10.680;2023-07-31T01:51:10;99570.53;;;17.58;75.97
80798;BME280;70202;52.238;10.680;2023-07-31T01:52:10;99574.16;;;17.58;76.04
80798;BME280;70202;52.238;10.680;2023-07-31T01:53:11;99570.53;;;17.58;75.86
80798;BME280;70202;52.238;10.680;2023-07-31T01:54:12;99565.03;;;17.58;76.00
80798;BME280;70202;52.238;10.680;2023-07-31T01:55:12;99555.50;;;17.51;76.07
80798;BME280;70202;52.238;10.680;2023-07-31T01:56:13;99568.91;;;17.55;75.79
80798;BME280;70202;52.238;10.680;2023-07-31T01:57:13;99553.63;;;17.51;75.86
80798;BME280;70202;52.238;10.680;2023-07-31T01:58:14;99553.00;;;17.47;75.89
80798;BME280;70202;52.238;10.680;2023-07-31T01:59:14;99566.91;;;17.57;75.93
80798;BME280;70202;52.238;10.680;2023-07-31T02:00:14;99555.38;;;17.52;75.90
80798;BME280;70202;52.238;10.680;2023-07-31T02:01:15;99564.16;;;17.57;76.03
80798;BME280;70202;52.238;10.680;2023-07-31T02:02:16;99560.38;;;17.58;76.12
80798;BME280;70202;52.238;10.680;2023-07-31T02:03:16;99564.03;;;17.59;76.07
80798;BME280;70202;52.238;10.680;2023-07-31T02:04:17;99556.75;;;17.58;76.22
80798;BME280;70202;52.238;10.680;2023-07-31T02:05:17;99545.38;;;17.51;76.10
80798;BME280;70202;52.238;10.680;2023-07-31T02:06:17;99544.59;;;17.49;76.02
80798;BME280;70202;52.238;10.680;2023-07-31T02:07:18;99547.13;;;17.52;75.83
80798;BME280;70202;52.238;10.680;2023-07-31T02:08:18;99525.94;;;17.41;76.16
80798;BME280;70202;52.238;10.680;2023-07-31T02:09:18;99556.75;;;17.58;76.05
80798;BME280;70202;52.238;10.680;2023-07-31T02:10:19;99551.38;;;17.56;76.11
80798;BME280;70202;52.238;10.680;2023-07-31T02:11:19;99553.25;;;17.56;76.12
80798;BME280;70202;52.238;10.680;2023-07-31T02:12:19;99543.50;;;17.52;76.09
80798;BME280;70202;52.238;10.680;2023-07-31T02:13:20;99551.38;;;17.56;76.22
80798;BME280;70202;52.238;10.680;2023-07-31T02:14:20;99536.47;;;17.47;76.16
80798;BME280;70202;52.238;10.680;2023-07-31T02:15:21;99540.97;;;17.48;76.24
80798;BME280;70202;52.238;10.680;2023-07-31T02:16:21;99532.59;;;17.50;76.08
80798;BME280;70202;52.238;10.680;2023-07-31T02:17:22;99532.72;;;17.48;76.25
80798;BME280;70202;52.238;10.680;2023-07-31T02:18:22;99544.13;;;17.55;76.27
80798;BME280;70202;52.238;10.680;2023-07-31T02:19:22;99530.97;;;17.47;76.21
80798;BME280;70202;52.238;10.680;2023-07-31T02:20:23;99520.31;;;17.43;76.40
80798;BME280;70202;52.238;10.680;2023-07-31T02:21:23;99531.09;;;17.46;76.43
80798;BME280;70202;52.238;10.680;2023-07-31T02:22:24;99530.84;;;17.49;76.21
80798;BME280;70202;52.238;10.680;2023-07-31T02:23:24;99513.31;;;17.39;76.39
80798;BME280;70202;52.238;10.680;2023-07-31T02:24:24;99524.97;;;17.42;76.31
80798;BME280;70202;52.238;10.680;2023-07-31T02:25:25;99524.59;;;17.47;76.33
80798;BME280;70202;52.238;10.680;2023-07-31T02:26:25;99529.97;;;17.48;76.39
80798;BME280;70202;52.238;10.680;2023-07-31T02:27:26;99527.72;;;17.42;76.40
80798;BME280;70202;52.238;10.680;2023-07-31T02:28:28;99511.44;;;17.39;76.37
80798;BME280;70202;52.238;10.680;2023-07-31T02:29:28;99521.94;;;17.45;76.02
80798;BME280;70202;52.238;10.680;2023-07-31T02:30:29;99522.31;;;17.41;76.68
80798;BME280;70202;52.238;10.680;2023-07-31T02:31:29;99519.56;;;17.41;76.72
80798;BME280;70202;52.238;10.680;2023-07-31T02:32:30;99412.34;;;16.82;76.59
80798;BME280;70202;52.238;10.680;2023-07-31T02:33:30;99503.41;;;17.36;76.53
80798;BME280;70202;52.238;10.680;2023-07-31T02:34:31;99508.03;;;17.36;76.83
80798;BME280;70202;52.238;10.680;2023-07-31T02:35:31;99515.81;;;17.42;76.81
80798;BME280;70202;52.238;10.680;2023-07-31T02:36:31;99495.75;;;17.29;76.82
80798;BME280;70202;52.238;10.680;2023-07-31T02:37:33;99487.84;;;17.24;76.70
80798;BME280;70202;52.238;10.680;2023-07-31T02:38:33;99511.56;;;17.38;77.06
80798;BME280;70202;52.238;10.680;2023-07-31T02:39:34;99525.19;;;17.39;76.86
80798;BME280;70202;52.238;10.680;2023-07-31T02:40:34;99517.06;;;17.38;76.71
80798;BME280;70202;52.238;10.680;2023-07-31T02:41:35;99516.16;;;17.37;77.14
80798;BME280;70202;52.238;10.680;2023-07-31T02:42:35;99495.88;;;17.27;77.30
80798;BME280;70202;52.238;10.680;2023-07-31T02:43:35;99508.03;;;17.36;77.20
80798;BME280;70202;52.238;10.680;2023-07-31T02:44:36;99502.91;;;17.31;77.21
80798;BME280;70202;52.238;10.680;2023-07-31T02:45:36;99505.28;;;17.36;77.12
80798;BME280;70202;52.238;10.680;2023-07-31T02:46:36;99500.50;;;17.27;77.15
80798;BME280;70202;52.238;10.680;2023-07-31T02:47:37;99511.78;;;17.35;77.10
80798;BME280;70202;52.238;10.680;2023-07-31T02:48:37;99507.16;;;17.35;77.25
80798;BME280;70202;52.238;10.680;2023-07-31T02:49:38;99493.25;;;17.26;77.18
80798;BME280;70202;52.238;10.680;2023-07-31T02:50:38;99513.69;;;17.34;77.28
80798;BME280;70202;52.238;10.680;2023-07-31T02:51:39;99486.88;;;17.25;77.49
80798;BME280;70202;52.238;10.680;2023-07-31T02:52:39;99491.47;;;17.24;77.54
80798;BME280;70202;52.238;10.680;2023-07-31T02:53:39;99483.13;;;17.26;77.44
80798;BME280;70202;52.238;10.680;2023-07-31T02:54:40;99471.06;;;17.16;77.47
80798;BME280;70202;52.238;10.680;2023-07-31T02:55:40;99500.91;;;17.33;77.81
80798;BME280;70202;52.238;10.680;2023-07-31T02:56:41;99496.53;;;17.31;77.57
80798;BME280;70202;52.238;10.680;2023-07-31T02:57:41;99497.41;;;17.31;77.76
80798;BME280;70202;52.238;10.680;2023-07-31T02:58:41;99498.25;;;17.32;77.85
80798;BME280;70202;52.238;10.680;2023-07-31T02:59:42;99502.03;;;17.31;77.73
80798;BME280;70202;52.238;10.680;2023-07-31T03:00:43;99478.22;;;17.18;77.65
80798;BME280;70202;52.238;10.680;2023-07-31T03:01:44;99495.75;;;17.29;77.89
80798;BME280;70202;52.238;10.680;2023-07-31T03:02:44;99484.50;;;17.20;77.93
80798;BME280;70202;52.238;10.680;2023-07-31T03:03:44;99492.25;;;17.27;77.98
80798;BME280;70202;52.238;10.680;2023-07-31T03:04:45;99492.38;;;17.25;78.03
80798;BME280;70202;52.238;10.680;2023-07-31T03:05:45;99493.00;;;17.29;77.97
80798;BME280;70202;52.238;10.680;2023-07-31T03:06:46;99496.88;;;17.26;78.10
80798;BME280;70202;52.238;10.680;2023-07-31T03:07:46;99491.47;;;17.24;78.10
80798;BME280;70202;52.238;10.680;2023-07-31T03:08:47;99500.38;;;17.28;78.25
80798;BME280;70202;52.238;10.680;2023-07-31T03:09:47;99500.38;;;17.28;78.28
80798;BME280;70202;52.238;10.680;2023-07-31T03:10:47;99471.44;;;17.11;78.21
80798;BME280;70202;52.238;10.680;2023-07-31T03:11:48;99491.38;;;17.26;78.65
80798;BME280;70202;52.238;10.680;2023-07-31T03:12:48;99494.13;;;17.26;78.39
80798;BME280;70202;52.238;10.680;2023-07-31T03:13:48;99491.47;;;17.24;78.75
80798;BME280;70202;52.238;10.680;2023-07-31T03:14:49;99492.38;;;17.25;78.40
80798;BME280;70202;52.238;10.680;2023-07-31T03:15:50;99492.50;;;17.23;78.25
80798;BME280;70202;52.238;10.680;2023-07-31T03:16:50;99476.59;;;17.16;78.44
80798;BME280;70202;52.238;10.680;2023-07-31T03:17:50;99477.59;;;17.15;78.63
80798;BME280;70202;52.238;10.680;2023-07-31T03:18:51;99493.50;;;17.22;78.69
80798;BME280;70202;52.238;10.680;2023-07-31T03:19:51;99488.88;;;17.23;78.67
80798;BME280;70202;52.238;10.680;2023-07-31T03:20:52;99479.34;;;17.16;78.60
80798;BME280;70202;52.238;10.680;2023-07-31T03:21:52;99484.22;;;17.23;78.80
80798;BME280;70202;52.238;10.680;2023-07-31T03:22:52;99465.84;;;17.13;78.96
80798;BME280;70202;52.238;10.680;2023-07-31T03:23:53;99490.63;;;17.24;79.01
80798;BME280;70202;52.238;10.680;2023-07-31T03:24:53;99474.47;;;17.19;78.99
80798;BME280;70202;52.238;10.680;2023-07-31T03:26:02;99486.13;;;17.23;78.97
80798;BME280;70202;52.238;10.680;2023-07-31T03:27:05;99476.34;;;17.19;78.60
80798;BME280;70202;52.238;10.680;2023-07-31T03:28:06;99471.22;;;17.14;78.75
80798;BME280;70202;52.238;10.680;2023-07-31T03:29:07;99468.47;;;17.14;79.29
80798;BME280;70202;52.238;10.680;2023-07-31T03:30:07;99490.88;;;17.21;78.91
80798;BME280;70202;52.238;10.680;2023-07-31T03:31:08;99490.88;;;17.21;78.90
80798;BME280;70202;52.238;10.680;2023-07-31T03:32:08;99481.47;;;17.12;79.05
80798;BME280;70202;52.238;10.680;2023-07-31T03:33:09;99461.94;;;17.04;79.10
80798;BME280;70202;52.238;10.680;2023-07-31T03:34:09;99494.50;;;17.21;79.06
80798;BME280;70202;52.238;10.680;2023-07-31T03:35:09;99472.44;;;17.10;78.87
80798;BME280;70202;52.238;10.680;2023-07-31T03:36:10;99488.38;;;17.18;79.08
80798;BME280;70202;52.238;10.680;2023-07-31T03:37:10;99491.34;;;17.15;78.99
80798;BME280;70202;52.238;10.680;2023-07-31T03:38:10;99496.38;;;17.21;79.22
80798;BME280;70202;52.238;10.680;2023-07-31T03:39:11;99496.38;;;17.21;79.25
80798;BME280;70202;52.238;10.680;2023-07-31T03:40:11;99475.72;;;17.15;79.16
80798;BME280;70202;52.238;10.680;2023-07-31T03:41:12;99496.25;;;17.22;79.22
80798;BME280;70202;52.238;10.680;2023-07-31T03:42:12;99485.75;;;17.16;79.19
80798;BME280;70202;52.238;10.680;2023-07-31T03:43:12;99481.13;;;17.17;79.07
80798;BME280;70202;52.238;10.680;2023-07-31T03:44:13;99477.94;;;17.10;79.15
80798;BME280;70202;52.238;10.680;2023-07-31T03:45:13;99478.59;;;17.14;79.43
80798;BME280;70202;52.238;10.680;2023-07-31T03:46:14;99499.88;;;17.23;79.22
80798;BME280;70202;52.238;10.680;2023-07-31T03:47:14;99501.63;;;17.24;79.36
80798;BME280;70202;52.238;10.680;2023-07-31T03:48:15;99496.13;;;17.24;79.37
80798;BME280;70202;52.238;10.680;2023-07-31T03:49:16;99488.00;;;17.22;79.54
80798;BME280;70202;52.238;10.680;2023-07-31T03:50:16;99481.97;;;17.17;79.53
80798;BME280;70202;52.238;10.680;2023-07-31T03:51:17;99500.66;;;17.25;79.38
80798;BME280;70202;52.238;10.680;2023-07-31T03:52:18;99476.84;;;17.13;79.53
80798;BME280;70202;52.238;10.680;2023-07-31T03:53:18;99482.22;;;17.14;79.39
80798;BME280;70202;52.238;10.680;2023-07-31T03:54:18;99494.59;;;17.20;79.80
80798;BME280;70202;52.238;10.680;2023-07-31T03:55:19;99490.25;;;17.17;79.65
80798;BME280;70202;52.238;10.680;2023-07-31T03:56:19;99491.84;;;17.20;79.71
80798;BME280;70202;52.238;10.680;2023-07-31T03:57:19;99496.38;;;17.21;79.63
80798;BME280;70202;52.238;10.680;2023-07-31T03:58:20;99472.09;;;17.15;79.55
80798;BME280;70202;52.238;10.680;2023-07-31T03:59:20;99498.78;;;17.26;79.60
80798;BME280;70202;52.238;10.680;2023-07-31T04:00:20;99484.59;;;17.19;79.67
80798;BME280;70202;52.238;10.680;2023-07-31T04:01:22;99491.75;;;17.21;79.87
80798;BME280;70202;52.238;10.680;2023-07-31T04:02:22;99492.50;;;17.23;79.89
80798;BME280;70202;52.238;10.680;2023-07-31T04:03:23;99494.38;;;17.23;79.97
80798;BME280;70202;52.238;10.680;2023-07-31T04:04:23;99510.28;;;17.31;79.72
80798;BME280;70202;52.238;10.680;2023-07-31T04:05:24;99501.75;;;17.22;79.68
80798;BME280;70202;52.238;10.680;2023-07-31T04:06:24;99506.75;;;17.29;79.55
80798;BME280;70202;52.238;10.680;2023-07-31T04:07:24;99493.88;;;17.18;79.53
80798;BME280;70202;52.238;10.680;2023-07-31T04:08:25;99483.97;;;17.15;79.54
80798;BME280;70202;52.238;10.680;2023-07-31T04:09:25;99485.38;;;17.21;79.66
80798;BME280;70202;52.238;10.680;2023-07-31T04:10:25;99490.97;;;17.19;79.81
80798;BME280;70202;52.238;10.680;2023-07-31T04:11:26;99504.78;;;17.31;79.86
80798;BME280;70202;52.238;10.680;2023-07-31T04:12:26;99504.78;;;17.31;79.93
80798;BME280;70202;52.238;10.680;2023-07-31T04:13:26;99491.63;;;17.23;79.86
80798;BME280;70202;52.238;10.680;2023-07-31T04:14:29;99504.00;;;17.29;80.06
80798;BME280;70202;52.238;10.680;2023-07-31T04:15:29;99500.75;;;17.23;79.91
80798;BME280;70202;52.238;10.680;2023-07-31T04:16:30;99493.72;;;17.19;80.09
80798;BME280;70202;52.238;10.680;2023-07-31T04:17:30;99499.88;;;17.23;79.85
80798;BME280;70202;52.238;10.680;2023-07-31T04:18:30;99508.53;;;17.30;79.99
80798;BME280;70202;52.238;10.680;2023-07-31T04:19:32;99505.78;;;17.30;80.13
80798;BME280;70202;52.238;10.680;2023-07-31T04:20:32;99496.66;;;17.29;80.04
80798;BME280;70202;52.238;10.680;2023-07-31T04:21:33;99479.47;;;17.14;79.81
80798;BME280;70202;52.238;10.680;2023-07-31T04:22:33;99491.75;;;17.21;79.97
80798;BME280;70202;52.238;10.680;2023-07-31T04:23:33;99503.13;;;17.28;80.13
80798;BME280;70202;52.238;10.680;2023-07-31T04:24:34;99489.22;;;17.18;80.17
80798;BME280;70202;52.238;10.680;2023-07-31T04:25:34;99487.13;;;17.22;80.06
80798;BME280;70202;52.238;10.680;2023-07-31T04:26:35;99504.00;;;17.29;80.17
80798;BME280;70202;52.238;10.680;2023-07-31T04:27:35;99471.34;;;17.13;80.20
80798;BME280;70202;52.238;10.680;2023-07-31T04:28:35;99495.75;;;17.29;80.25
80798;BME280;70202;52.238;10.680;2023-07-31T04:29:36;99479.88;;;17.21;80.24
80798;BME280;70202;52.238;10.680;2023-07-31T04:30:36;99483.50;;;17.21;80.16
80798;BME280;70202;52.238;10.680;2023-07-31T04:31:37;99493.91;;;17.29;80.28
80798;BME280;70202;52.238;10.680;2023-07-31T04:32:37;99493.00;;;17.29;80.33
80798;BME280;70202;52.238;10.680;2023-07-31T04:33:37;99480.75;;;17.21;80.07
80798;BME280;70202;52.238;10.680;2023-07-31T04:34:38;99491.00;;;17.31;80.36
80798;BME280;70202;52.238;10.680;2023-07-31T04:35:38;99492.03;;;17.30;80.33
80798;BME280;70202;52.238;10.680;2023-07-31T04:36:38;99478.63;;;17.25;80.17
80798;BME280;70202;52.238;10.680;2023-07-31T04:37:39;99487.50;;;17.29;80.24
80798;BME280;70202;52.238;10.680;2023-07-31T04:38:39;99473.50;;;17.20;80.35
80798;BME280;70202;52.238;10.680;2023-07-31T04:39:41;99466.84;;;17.23;80.71
80798;BME280;70202;52.238;10.680;2023-07-31T04:40:41;99482.25;;;17.26;80.49
80798;BME280;70202;52.238;10.680;2023-07-31T04:41:42;99488.25;;;17.31;80.56
80798;BME280;70202;52.238;10.680;2023-07-31T04:42:42;99484.00;;;17.27;80.42
80798;BME280;70202;52.238;10.680;2023-07-31T04:43:42;99493.41;;;17.35;80.35
80798;BME280;70202;52.238;10.680;2023-07-31T04:44:43;99480.47;;;17.24;80.49
80798;BME280;70202;52.238;10.680;2023-07-31T04:45:46;99491.66;;;17.34;80.50
80798;BME280;70202;52.238;10.680;2023-07-31T04:46:48;99491.00;;;17.31;80.46
80798;BME280;70202;52.238;10.680;2023-07-31T04:47:48;99481.97;;;17.29;80.36
80798;BME280;70202;52.238;10.680;2023-07-31T04:48:48;99493.91;;;17.29;80.43
80798;BME280;70202;52.238;10.680;2023-07-31T04:49:49;99494.50;;;17.33;80.60
80798;BME280;70202;52.238;10.680;2023-07-31T04:50:49;99498.91;;;17.35;80.55
80798;BME280;70202;52.238;10.680;2023-07-31T04:51:49;99486.63;;;17.28;80.64
80798;BME280;70202;52.238;10.680;2023-07-31T04:52:50;99481.38;;;17.25;80.45
80798;BME280;70202;52.238;10.680;2023-07-31T04:53:50;99489.63;;;17.25;80.55
80798;BME280;70202;52.238;10.680;2023-07-31T04:54:50;99485.88;;;17.26;80.58
80798;BME280;70202;52.238;10.680;2023-07-31T04:55:51;99504.41;;;17.35;80.61
80798;BME280;70202;52.238;10.680;2023-07-31T04:56:51;99484.88;;;17.27;80.49
80798;BME280;70202;52.238;10.680;2023-07-31T04:57:52;99489.50;;;17.27;80.41
80798;BME280;70202;52.238;10.680;2023-07-31T04:58:53;99496.28;;;17.34;80.52
80798;BME280;70202;52.238;10.680;2023-07-31T04:59:53;99485.00;;;17.26;80.50
80798;BME280;70202;52.238;10.680;2023-07-31T05:00:54;99494.13;;;17.26;80.30
80798;BME280;70202;52.238;10.680;2023-07-31T05:01:54;99480.75;;;17.21;80.23
80798;BME280;70202;52.238;10.680;2023-07-31T05:02:54;99502.03;;;17.31;80.38
80798;BME280;70202;52.238;10.680;2023-07-31T05:03:55;99504.91;;;17.29;80.23
80798;BME280;70202;52.238;10.680;2023-07-31T05:04:55;99496.25;;;17.22;80.29
80798;BME280;70202;52.238;10.680;2023-07-31T05:05:56;99499.63;;;17.26;80.25
80798;BME280;70202;52.238;10.680;2023-07-31T05:06:56;99487.34;;;17.19;80.25
80798;BME280;70202;52.238;10.680;2023-07-31T05:07:56;99502.41;;;17.26;80.10
80798;BME280;70202;52.238;10.680;2023-07-31T05:08:57;99502.50;;;17.24;80.07
80798;BME280;70202;52.238;10.680;2023-07-31T05:09:57;99491.25;;;17.16;80.02
80798;BME280;70202;52.238;10.680;2023-07-31T05:10:58;99495.75;;;17.17;79.73
80798;BME280;70202;52.238;10.680;2023-07-31T05:11:58;99503.78;;;17.20;79.98
80798;BME280;70202;52.238;10.680;2023-07-31T05:12:58;99503.78;;;17.20;80.10
80798;BME280;70202;52.238;10.680;2023-07-31T05:13:59;99500.25;;;17.18;79.93
80798;BME280;70202;52.238;10.680;2023-07-31T05:14:59;99471.06;;;17.05;80.11
80798;BME280;70202;52.238;10.680;2023-07-31T05:15:59;99500.25;;;17.18;79.98
80798;BME280;70202;52.238;10.680;2023-07-31T05:17:00;99485.56;;;17.07;79.81
80798;BME280;70202;52.238;10.680;2023-07-31T05:18:00;99496.09;;;17.13;80.01
80798;BME280;70202;52.238;10.680;2023-07-31T05:19:00;99477.31;;;17.07;79.80
80798;BME280;70202;52.238;10.680;2023-07-31T05:20:01;99492.84;;;17.08;79.91
80798;BME280;70202;52.238;10.680;2023-07-31T05:21:01;99498.72;;;17.14;80.03
80798;BME280;70202;52.238;10.680;2023-07-31T05:22:02;99498.88;;;17.13;79.78
80798;BME280;70202;52.238;10.680;2023-07-31T05:23:02;99498.88;;;17.13;79.79
80798;BME280;70202;52.238;10.680;2023-07-31T05:24:03;99491.06;;;17.07;79.60
80798;BME280;70202;52.238;10.680;2023-07-31T05:25:04;99498.09;;;17.11;79.81
80798;BME280;70202;52.238;10.680;2023-07-31T05:26:05;99488.97;;;17.10;79.86